ドーハ国際空港の過去48時間の天気

ドーハ国際空港 (Doha International Airport)

現在時刻: 9/23 02:35 +03 (9/22 23:35 UTC) 以下の時間は現地時間です。

過去48時間のMETAR気象情報
時間 風向 風速(m/s) 視程 気温(℃) 湿度(%) 気圧(hPa) 天気現象
23 02:00 西 3 10km以上 30 59 1002
23 01:30 西 3 10km以上 30 59 1002
23 01:00 西 2 10km以上 30 59 1002
23 00:30 西 2 10km以上 30 59 1002
23 00:00 西 2 10km以上 31 55 1003
22 23:30 北西 3 10km以上 31 52 1003
22 23:00 西北西 2 10km以上 32 46 1003
22 22:30 西北西 3 10km以上 33 38 1003
OTBD 222300Z AUTO 27005KT 230V320 CAVOK 30/21 Q1002 NOSIG
OTBD 222230Z AUTO 26005KT 210V310 CAVOK 30/21 Q1002 NOSIG
OTBD 222200Z AUTO 27003KT 220V310 CAVOK 30/21 Q1002 NOSIG
OTBD 222130Z AUTO 28004KT 220V320 CAVOK 30/21 Q1002 NOSIG
OTBD 222100Z AUTO 28004KT 230V320 CAVOK 31/21 Q1003 NOSIG
OTBD 222030Z AUTO 31005KT 280V340 CAVOK 31/20 Q1003 NOSIG
OTBD 222000Z AUTO 29004KT 200V340 CAVOK 32/19 Q1003 NOSIG
OTBD 221930Z AUTO 30005KT CAVOK 33/17 Q1003 NOSIG